Arenys de Munt, Spain
Current Conditions -  °F | °C
As of 5:00 PM on Friday 24 Oct 2014 (Local Time) from LELL Reporting Station
Clear Clear  
Wind Chill: 75°   Ceiling: Unl
Heat Index: 75°   Visibility: 6mi
Dew Point: 50°   Wind: 7mph
Humidity: 41%   Direction: 120°ESE
Pressure: 29.97"   Gusts: NA
Location:  41.61°N, 2.54°E
Report Text: LELL 241500Z 12006KT 080V160 CAVOK 24/10 Q1015
Loading
Personal Weather Stations






























Interactive Weather Map
Tropical Storm Tracking
New forecast layout! Learn more

10-Day Weather Forecast

Advertisements
Track Severe Weather on mobile